Time;durP1;ratioP1;P1;durP2;ratioP2;P2;SDS_P1;SDS_P2;PMS_P1;PMS_P2;Temp;Humidity;BMP_temperature;BMP_pressure;BME280_temperature;BME280_humidity;BME280_pressure;Samples;Min_cycle;Max_cycle;Signal;HPM_P1;HPM_P2
2022/09/04 00:02:34;;;;;;;;;;;19.10;73.90;;;18.36;67.97;96640.97;4231381;33;20093;-84
2022/09/04 00:05:06;;;;;;;;;;;19.10;73.90;;;18.35;67.56;96637.41;4234198;33;19909;-84
2022/09/04 00:07:40;;;;;;;;;;;19.10;73.90;;;18.36;67.80;96635.44;4234162;33;19902;-85
2022/09/04 00:10:12;;;;;;;;;;;19.00;73.90;;;18.35;68.00;96639.34;4233971;33;19906;-84
2022/09/04 00:12:45;;;;;;;;;;;19.10;73.80;;;18.35;67.88;96644.88;4234811;33;19902;-85
2022/09/04 00:15:18;;;;;;;;;;;19.10;73.90;;;18.34;68.00;96649.63;4210625;33;19910;-84
2022/09/04 00:17:51;;;;;;;;;;;19.00;73.80;;;18.34;67.92;96649.63;4257898;33;20019;-85
2022/09/04 00:20:31;;;;;;;;;;;19.00;73.80;;;18.34;67.85;96652.38;4234166;33;19902;-85
2022/09/04 00:23:04;;;;;;;;;;;19.00;73.80;;;18.33;67.90;96647.97;4257320;33;20232;-84
2022/09/04 00:25:35;;;;;;;;;;;19.10;73.90;;;18.34;67.94;96655.16;4233864;33;19925;-84
2022/09/04 00:28:09;;;;;;;;;;;19.00;73.80;;;18.34;68.12;96655.16;4233914;33;19902;-85
2022/09/04 00:30:41;;;;;;;;;;;19.00;73.80;;;18.34;67.96;96654.31;4234785;33;20222;-84
2022/09/04 00:33:12;;;;;;;;;;;19.00;73.80;;;18.34;68.24;96648.78;4233825;33;20164;-84
2022/09/04 00:35:43;;;;;;;;;;;19.10;74.00;;;18.32;68.17;96651.88;4233741;33;20094;-84
2022/09/04 00:38:15;;;;;;;;;;;19.10;74.00;;;18.33;68.00;96647.16;4210205;33;19952;-84
2022/09/04 00:40:47;;;;;;;;;;;19.00;73.80;;;18.33;68.13;96652.72;4233664;33;19911;-84
2022/09/04 00:44:07;;;;;;;;;;;19.00;73.90;;;18.33;67.87;96661.84;4227319;33;19906;-84
2022/09/04 00:47:10;;;;;;;;;;;19.00;73.80;;;18.33;68.29;96653.53;4240124;33;19901;-83
2022/09/04 00:50:01;;;;;;;;;;;19.00;73.90;;;18.32;68.16;96657.41;4187921;33;19909;-84
2022/09/04 00:52:44;;;;;;;;;;;19.00;73.90;;;18.32;68.13;96657.41;4206226;33;19902;-84
2022/09/04 00:55:34;;;;;;;;;;;19.00;73.90;;;18.32;68.25;96657.41;4210064;33;20320;-84
2022/09/04 00:58:24;;;;;;;;;;;19.00;74.00;;;18.32;68.34;96662.16;4262125;33;20076;-84
2022/09/04 01:00:52;;;;;;;;;;;19.00;73.90;;;18.33;68.15;96667.38;4261744;33;19909;-84
2022/09/04 01:03:39;;;;;;;;;;;19.00;74.00;;;18.32;68.06;96668.50;4262226;33;19902;-84
2022/09/04 01:06:25;;;;;;;;;;;19.00;73.90;;;18.31;68.22;96672.41;4238223;33;19902;-85
2022/09/04 01:09:29;;;;;;;;;;;19.00;73.90;;;18.31;68.42;96675.19;4261956;33;19909;-84
2022/09/04 01:12:09;;;;;;;;;;;19.00;74.00;;;18.31;68.19;96680.72;4261536;33;19902;-84
2022/09/04 01:14:42;;;;;;;;;;;19.00;73.90;;;18.32;68.12;96667.69;4238358;33;20049;-84
2022/09/04 01:17:18;;;;;;;;;;;19.00;73.90;;;18.31;68.11;96669.63;4262041;33;19970;-84
2022/09/04 01:19:56;;;;;;;;;;;19.00;73.90;;;18.31;67.91;96672.41;4238228;33;19902;-84
2022/09/04 01:22:51;;;;;;;;;;;19.00;73.90;;;18.31;68.48;96668.81;4237595;33;20165;-84
2022/09/04 01:25:32;;;;;;;;;;;19.00;73.90;;;18.30;67.71;96668.00;4257017;33;20214;-84
2022/09/04 01:28:05;;;;;;;;;;;19.00;73.90;;;18.30;68.13;96673.53;4233306;33;19954;-84
2022/09/04 01:30:40;;;;;;;;;;;19.00;74.00;;;18.29;68.18;96665.53;4209786;33;20064;-84
2022/09/04 01:33:15;;;;;;;;;;;19.00;74.00;;;18.30;67.86;96664.41;4215720;33;19902;-85
2022/09/04 01:35:49;;;;;;;;;;;19.00;74.00;;;18.29;68.28;96658.03;4237867;33;20158;-84
2022/09/04 01:38:21;;;;;;;;;;;19.00;74.00;;;18.29;67.96;96660.81;4237558;33;19902;-84
2022/09/04 01:40:53;;;;;;;;;;;19.00;74.00;;;18.27;67.97;96660.28;4261277;33;19969;-84
2022/09/04 01:43:24;;;;;;;;;;;19.00;74.00;;;18.28;68.03;96661.94;4262732;33;20151;-84
2022/09/04 01:46:17;;;;;;;;;;;19.00;74.00;;;18.29;67.93;96668.31;4261673;33;19912;-84
2022/09/04 01:48:49;;;;;;;;;;;19.00;74.80;;;18.29;68.25;96668.31;4261750;33;19901;-84
2022/09/04 01:51:24;;;;;;;;;;;19.00;74.00;;;18.28;68.03;96666.66;4261027;33;19908;-84
2022/09/04 01:54:03;;;;;;;;;;;19.00;74.10;;;18.29;68.21;96673.84;4261448;33;19902;-83
2022/09/04 01:56:37;;;;;;;;;;;19.00;74.00;;;18.28;68.17;96666.66;4261643;33;19905;-84
2022/09/04 01:59:11;;;;;;;;;;;19.00;74.00;;;18.27;68.10;96660.28;4237801;33;20062;-84
2022/09/04 02:01:42;;;;;;;;;;;19.00;74.00;;;18.27;68.12;96665.03;4261890;33;19917;-84
2022/09/04 02:04:17;;;;;;;;;;;19.00;74.10;;;18.27;68.22;96663.06;4262179;33;20144;-83
2022/09/04 02:06:50;;;;;;;;;;;19.00;74.10;;;18.24;68.21;96661.72;4236535;33;19911;-83
2022/09/04 02:09:36;;;;;;;;;;;18.90;74.10;;;18.26;68.06;96669.75;4257990;33;19916;-84
2022/09/04 02:12:12;;;;;;;;;;;18.90;74.00;;;18.27;68.32;96670.56;4251740;33;19917;-83
2022/09/04 02:14:50;;;;;;;;;;;19.00;74.10;;;18.25;68.02;96665.34;4261479;33;19964;-84
2022/09/04 02:17:24;;;;;;;;;;;19.00;74.10;;;18.25;68.15;96662.56;4261031;33;19977;-84
2022/09/04 02:20:04;;;;;;;;;;;19.00;74.10;;;18.24;68.45;96672.00;4261475;33;20036;-83
2022/09/04 02:22:39;;;;;;;;;;;18.90;74.10;;;18.25;68.47;96673.66;4237150;33;20457;-84
2022/09/04 02:25:16;;;;;;;;;;;18.90;74.10;;;18.24;68.35;96672.00;4237565;33;19909;-84
2022/09/04 02:27:51;;;;;;;;;;;18.90;74.10;;;18.25;68.08;96674.47;4232501;33;19902;-84
2022/09/04 02:30:21;;;;;;;;;;;18.90;74.00;;;18.23;68.10;96670.38;4253428;33;20474;-84
2022/09/04 02:32:56;;;;;;;;;;;18.90;74.10;;;18.24;68.13;96672.81;4260863;33;20020;-84
2022/09/04 02:35:30;;;;;;;;;;;18.90;74.10;;;18.25;68.32;96665.34;4237198;33;19902;-84
2022/09/04 02:38:06;;;;;;;;;;;18.90;74.10;;;18.24;68.41;96672.00;4261084;33;20161;-84
2022/09/04 02:40:41;;;;;;;;;;;18.90;74.20;;;18.24;68.23;96670.03;4239139;33;19902;-84
2022/09/04 02:43:28;;;;;;;;;;;18.90;74.10;;;18.24;68.40;96667.28;4232560;33;19903;-84
2022/09/04 02:46:04;;;;;;;;;;;18.90;74.10;;;18.24;68.36;96666.47;4208971;33;19949;-84
2022/09/04 02:48:43;;;;;;;;;;;18.90;74.10;;;18.24;68.14;96672.00;4232465;33;19902;-84
2022/09/04 02:51:21;;;;;;;;;;;18.90;74.20;;;18.23;68.20;96670.38;4233916;33;19902;-84
2022/09/04 02:53:56;;;;;;;;;;;18.90;74.20;;;18.22;68.18;96666.75;4234884;33;19909;-84
2022/09/04 02:56:34;;;;;;;;;;;18.90;74.20;;;18.22;68.07;96675.06;4211461;33;19939;-84
2022/09/04 02:59:20;;;;;;;;;;;18.90;74.10;;;18.22;68.19;96668.72;4235080;33;20048;-84
2022/09/04 03:01:56;;;;;;;;;;;18.90;74.20;;;18.22;68.36;96668.72;4210680;33;19909;-84
2022/09/04 03:04:30;;;;;;;;;;;18.90;74.20;;;18.21;68.15;96662.34;4234982;33;20016;-83
2022/09/04 03:07:03;;;;;;;;;;;18.90;74.10;;;18.21;68.48;96656.81;4234477;33;20085;-84
2022/09/04 03:09:36;;;;;;;;;;;18.90;74.10;;;18.21;68.04;96650.44;4258891;33;20161;-84
2022/09/04 03:12:13;;;;;;;;;;;18.90;74.10;;;18.21;68.24;96648.50;4234034;33;20062;-83
2022/09/04 03:14:46;;;;;;;;;;;18.90;74.10;;;18.20;68.35;96649.63;4215712;33;19932;-84
2022/09/04 03:17:21;;;;;;;;;;;18.90;74.20;;;18.20;68.28;96651.59;4239267;33;20221;-84
2022/09/04 03:19:53;;;;;;;;;;;18.90;74.10;;;18.20;68.33;96657.13;4264357;33;20333;-84
2022/09/04 03:22:24;;;;;;;;;;;18.90;74.10;;;18.19;68.18;96652.72;4238934;33;19902;-84
2022/09/04 03:25:10;;;;;;;;;;;18.90;74.20;;;18.20;68.26;96662.66;4263247;33;20448;-84
2022/09/04 03:27:39;;;;;;;;;;;18.90;74.10;;;18.19;68.37;96661.84;4263234;33;20438;-84
2022/09/04 03:30:09;;;;;;;;;;;18.90;74.10;;;18.19;68.04;96664.63;4239444;33;19909;-84
2022/09/04 03:32:45;;;;;;;;;;;18.90;74.20;;;18.18;68.23;96662.16;4262396;33;20020;-84
2022/09/04 03:35:20;;;;;;;;;;;18.90;75.10;;;18.17;68.26;96663.28;4287519;33;20225;-83
2022/09/04 03:38:00;;;;;;;;;;;18.90;74.30;;;18.19;68.16;96675.72;4263022;33;19909;-84
2022/09/04 03:40:38;;;;;;;;;;;18.90;74.20;;;18.18;68.14;96674.06;4263150;33;20089;-84
2022/09/04 03:43:40;;;;;;;;;;;18.90;74.20;;;18.18;68.26;96665.75;4262509;33;19914;-84
2022/09/04 03:46:20;;;;;;;;;;;18.90;74.20;;;18.18;68.43;96679.63;4267719;33;20011;-84
2022/09/04 03:49:02;;;;;;;;;;;18.90;74.30;;;18.19;68.19;96675.72;4263262;33;20228;-84
2022/09/04 03:51:39;;;;;;;;;;;18.90;74.30;;;18.18;68.33;96664.91;4238589;33;20081;-84
2022/09/04 03:54:14;;;;;;;;;;;18.90;74.20;;;18.19;68.25;96681.25;4239248;33;20158;-83
2022/09/04 03:56:56;;;;;;;;;;;18.90;74.30;;;18.18;68.42;96673.22;4262690;33;19902;-84
2022/09/04 03:59:45;;;;;;;;;;;18.90;74.30;;;18.19;68.45;96683.19;4239386;33;20209;-84
2022/09/04 04:02:21;;;;;;;;;;;18.90;74.20;;;18.19;68.13;96685.97;4262712;33;19909;-84
2022/09/04 04:05:08;;;;;;;;;;;18.90;74.20;;;18.20;68.52;96687.59;4262856;33;19902;-83
2022/09/04 04:07:41;;;;;;;;;;;18.90;74.20;;;18.19;68.65;96689.56;4233830;33;19902;-84
2022/09/04 04:10:19;;;;;;;;;;;18.90;74.10;;;18.20;68.15;96687.59;4234341;33;20120;-84
2022/09/04 04:13:23;;;;;;;;;;;18.90;74.20;;;18.21;68.44;96689.25;4257431;33;20232;-84
2022/09/04 04:16:03;;;;;;;;;;;18.90;74.20;;;18.21;68.03;96697.56;4257878;33;19973;-84
2022/09/04 04:18:53;;;;;;;;;;;18.90;74.10;;;18.22;68.08;96696.44;4257175;33;20224;-84
2022/09/04 04:21:35;;;;;;;;;;;18.90;74.00;;;18.23;67.98;96695.31;4263220;33;19902;-84
2022/09/04 04:24:28;;;;;;;;;;;18.90;74.00;;;18.22;68.09;96700.00;4263466;33;19969;-84
2022/09/04 04:27:10;;;;;;;;;;;18.90;73.90;;;18.24;67.90;96699.72;4244936;33;19935;-84
2022/09/04 04:30:04;;;;;;;;;;;18.90;73.90;;;18.24;67.99;96696.94;4263695;33;19902;-83
2022/09/04 04:32:57;;;;;;;;;;;18.90;73.80;;;18.22;68.14;96702.78;4258994;33;20341;-84
2022/09/04 04:35:30;;;;;;;;;;;18.90;73.90;;;18.22;68.12;96701.97;4239835;33;19905;-84
2022/09/04 04:38:13;;;;;;;;;;;18.90;73.90;;;18.22;68.24;96711.09;4262345;33;20297;-84
2022/09/04 04:40:58;;;;;;;;;;;18.90;74.00;;;18.22;67.94;96704.75;4238577;33;20349;-84
2022/09/04 04:43:33;;;;;;;;;;;18.90;73.90;;;18.20;68.09;96704.22;4210287;33;19902;-84
2022/09/04 04:46:13;;;;;;;;;;;18.90;74.00;;;18.20;68.05;96715.31;4233889;33;19908;-84
2022/09/04 04:49:13;;;;;;;;;;;18.90;74.00;;;18.20;68.28;96709.78;4234522;33;20020;-84
2022/09/04 04:51:55;;;;;;;;;;;18.90;74.10;;;18.20;68.08;96709.78;4209658;33;19953;-84
2022/09/04 04:54:46;;;;;;;;;;;18.90;74.00;;;18.19;68.25;96708.97;4233598;33;19903;-84
2022/09/04 04:57:24;;;;;;;;;;;18.90;74.00;;;18.20;68.31;96720.84;4257432;33;20111;-84
2022/09/04 05:00:02;;;;;;;;;;;18.90;74.10;;;18.20;68.03;96718.09;4210171;33;19902;-84
2022/09/04 05:02:34;;;;;;;;;;;18.90;74.10;;;18.20;68.24;96726.41;4209724;33;20318;-84
2022/09/04 05:05:12;;;;;;;;;;;18.90;74.00;;;18.19;68.32;96713.66;4234418;33;19902;-84
2022/09/04 05:07:44;;;;;;;;;;;18.90;74.00;;;18.19;68.10;96730.31;4233233;33;19902;-84
2022/09/04 05:10:18;;;;;;;;;;;18.90;74.00;;;18.19;68.12;96719.22;4233659;33;19910;-84
2022/09/04 05:13:03;;;;;;;;;;;18.90;74.00;;;18.20;68.21;96720.84;4250080;33;19902;-84
2022/09/04 05:15:35;;;;;;;;;;;18.90;74.00;;;18.21;67.93;96728.03;4262981;33;20145;-85
2022/09/04 05:18:08;;;;;;;;;;;18.90;74.00;;;18.20;68.10;96729.16;4259267;33;20037;-85
2022/09/04 05:20:42;;;;;;;;;;;18.90;74.00;;;18.20;68.06;96731.94;4263041;33;19955;-85
2022/09/04 05:23:26;;;;;;;;;;;18.90;74.00;;;18.21;68.11;96733.59;4262635;33;19902;-85
2022/09/04 05:26:00;;;;;;;;;;;18.90;74.00;;;18.21;67.92;96734.41;4262012;33;20421;-83
2022/09/04 05:28:33;;;;;;;;;;;18.90;74.00;;;18.23;67.98;96736.88;4261855;33;20138;-83
2022/09/04 05:31:13;;;;;;;;;;;18.90;74.00;;;18.25;67.88;96737.41;4261511;33;20109;-83
2022/09/04 05:33:48;;;;;;;;;;;18.90;73.90;;;18.28;68.12;96744.25;4261517;33;19902;-83
2022/09/04 05:36:21;;;;;;;;;;;19.00;73.70;;;18.28;67.69;96747.84;4261894;33;19909;-82
2022/09/04 05:38:58;;;;;;;;;;;19.00;73.50;;;18.29;67.83;96748.69;4261787;33;20060;-84
2022/09/04 05:41:38;;;;;;;;;;;19.00;73.50;;;18.29;67.81;96746.72;4261442;33;19909;-84
2022/09/04 05:44:20;;;;;;;;;;;19.00;73.60;;;18.26;67.87;96752.91;4261713;33;20078;-84
2022/09/04 05:46:57;;;;;;;;;;;19.00;73.60;;;18.27;67.97;96753.72;4261475;33;19902;-84
2022/09/04 05:49:36;;;;;;;;;;;19.00;73.70;;;18.25;68.00;96751.25;4209703;33;19902;-83
2022/09/04 05:52:23;;;;;;;;;;;19.00;73.80;;;18.25;67.80;96756.78;4232810;33;19996;-83
2022/09/04 05:55:20;;;;;;;;;;;19.00;73.70;;;18.24;67.54;96761.50;4209096;33;19902;-84
2022/09/04 05:58:00;;;;;;;;;;;18.90;73.70;;;18.22;68.09;96762.94;4232867;33;20229;-83
2022/09/04 06:00:31;;;;;;;;;;;18.90;73.70;;;18.24;68.08;96763.47;4234046;33;20084;-83
2022/09/04 06:03:29;;;;;;;;;;;18.90;73.80;;;18.22;67.84;96763.75;4209026;33;20103;-83
2022/09/04 06:06:11;;;;;;;;;;;18.90;73.80;;;18.22;67.98;96772.06;4233133;33;19903;-84
2022/09/04 06:09:22;;;;;;;;;;;18.90;73.80;;;18.21;67.94;96773.19;4250028;33;19909;-83
2022/09/04 06:12:29;;;;;;;;;;;18.90;73.90;;;18.21;67.98;96773.19;4250979;33;19903;-84
2022/09/04 06:15:16;;;;;;;;;;;18.90;74.00;;;18.21;67.92;96772.38;4233980;33;20112;-84
2022/09/04 06:18:01;;;;;;;;;;;18.90;74.00;;;18.21;68.12;96777.94;4270937;33;19909;-84
2022/09/04 06:20:40;;;;;;;;;;;18.90;73.90;;;18.21;67.98;96775.97;4262402;33;19924;-84
2022/09/04 06:23:35;;;;;;;;;;;18.90;73.90;;;18.23;67.99;96781.22;4236911;33;19902;-84
2022/09/04 06:26:33;;;;;;;;;;;18.90;73.90;;;18.23;67.91;96770.94;4240274;33;19902;-84
2022/09/04 06:29:22;;;;;;;;;;;18.90;73.90;;;18.28;67.69;96783.06;4263710;33;20240;-84
2022/09/04 06:32:33;;;;;;;;;;;19.00;73.80;;;18.30;67.86;96772.50;4264454;33;20075;-84
2022/09/04 06:35:14;;;;;;;;;;;19.00;73.70;;;18.32;67.62;96773.81;4239940;33;19902;-84
2022/09/04 06:37:49;;;;;;;;;;;19.00;73.60;;;18.33;67.47;96775.47;4263791;33;19951;-84
2022/09/04 06:40:33;;;;;;;;;;;19.10;73.60;;;18.33;67.42;96775.47;4263692;33;19901;-84
2022/09/04 06:43:12;;;;;;;;;;;19.10;73.40;;;18.36;67.27;96774.88;4264228;33;20150;-84
2022/09/04 06:45:52;;;;;;;;;;;19.10;73.30;;;18.40;67.37;96773.09;4264853;33;20454;-84
2022/09/04 06:48:34;;;;;;;;;;;19.10;73.30;;;18.48;67.42;96781.84;4263418;33;19901;-84
2022/09/04 06:51:15;;;;;;;;;;;19.10;73.20;;;18.51;67.16;96779.28;4263218;33;20005;-84
2022/09/04 06:53:50;;;;;;;;;;;19.20;73.00;;;18.58;67.21;96786.38;4239750;33;19901;-84
2022/09/04 06:56:49;;;;;;;;;;;19.30;72.70;;;18.58;66.70;96787.19;4239890;33;19902;-85
2022/09/04 06:59:48;;;;;;;;;;;19.30;72.40;;;18.55;66.47;96787.78;4239453;33;20236;-84
2022/09/04 07:02:28;;;;;;;;;;;19.30;72.30;;;18.52;66.41;96780.91;4263210;33;19902;-84
2022/09/04 07:05:08;;;;;;;;;;;19.30;72.40;;;18.50;66.25;96790.69;4263518;33;19909;-84
2022/09/04 07:07:39;;;;;;;;;;;19.20;72.30;;;18.49;66.85;96791.81;4239554;33;19901;-84
2022/09/04 07:10:09;;;;;;;;;;;19.20;72.40;;;18.49;66.80;96789.03;4263594;33;19909;-84
2022/09/04 07:13:20;;;;;;;;;;;19.20;72.60;;;18.51;66.71;96790.38;4239323;33;20122;-84
2022/09/04 07:16:29;;;;;;;;;;;19.20;72.70;;;18.58;66.64;96794.69;4242485;33;19902;-84
2022/09/04 07:19:23;;;;;;;;;;;19.30;72.80;;;18.65;66.75;96797.88;4229896;33;19902;-84
2022/09/04 07:22:06;;;;;;;;;;;19.30;72.70;;;18.68;66.30;96792.50;4239041;33;19916;-84
2022/09/04 07:24:56;;;;;;;;;;;19.40;72.40;;;18.71;66.25;96794.69;4239480;33;20159;-84
2022/09/04 07:27:36;;;;;;;;;;;19.40;72.20;;;18.74;66.49;96795.19;4239195;33;19909;-85
2022/09/04 07:30:06;;;;;;;;;;;19.40;72.00;;;18.78;66.33;96793.44;4263175;33;19901;-85
2022/09/04 07:32:39;;;;;;;;;;;19.40;72.00;;;18.81;66.53;96801.97;4262925;33;19902;-85
2022/09/04 07:35:13;;;;;;;;;;;19.50;72.10;;;18.89;66.14;96797.66;4238817;33;19901;-84
2022/09/04 07:37:50;;;;;;;;;;;19.50;72.20;;;18.92;66.54;96798.97;4239137;33;20154;-84
2022/09/04 07:40:21;;;;;;;;;;;19.60;72.30;;;18.91;66.80;96802.88;4239158;33;19901;-84
2022/09/04 07:42:53;;;;;;;;;;;19.60;72.40;;;18.88;66.48;96790.47;4238710;33;19902;-84
2022/09/04 07:45:31;;;;;;;;;;;19.60;72.30;;;18.87;66.56;96799.91;4239143;33;20034;-84
2022/09/04 07:48:17;;;;;;;;;;;19.60;72.20;;;18.87;66.60;96797.13;4262974;33;20103;-84
2022/09/04 07:51:03;;;;;;;;;;;19.60;72.10;;;18.92;66.82;96791.47;4262623;33;19902;-84
2022/09/04 07:54:05;;;;;;;;;;;19.60;72.40;;;18.99;66.90;96780.81;4262956;33;19902;-84
2022/09/04 07:56:44;;;;;;;;;;;19.60;72.50;;;19.11;66.52;96785.00;4263905;33;20465;-84
2022/09/04 07:59:31;;;;;;;;;;;19.70;72.40;;;19.13;66.44;96791.06;4262980;33;19902;-84
2022/09/04 08:02:18;;;;;;;;;;;19.80;72.20;;;19.15;66.31;96794.34;4262502;33;20145;-84
2022/09/04 08:05:20;;;;;;;;;;;19.80;72.20;;;19.14;66.02;96796.28;4286769;33;20310;-84
2022/09/04 08:08:13;;;;;;;;;;;19.80;72.00;;;19.12;66.07;96793.00;4286871;33;19901;-85
2022/09/04 08:10:51;;;;;;;;;;;19.80;71.90;;;19.19;66.29;96794.53;4286992;33;20011;-84
2022/09/04 08:13:41;;;;;;;;;;;19.80;71.90;;;19.25;65.89;96799.66;4238986;33;19909;-84
2022/09/04 08:16:13;;;;;;;;;;;19.90;72.80;;;19.34;65.82;96796.13;4262582;33;20028;-84
2022/09/04 08:18:55;;;;;;;;;;;19.90;71.80;;;19.40;65.71;96801.25;4238672;33;19909;-84
2022/09/04 08:21:28;;;;;;;;;;;20.00;71.40;;;19.45;65.51;96800.31;4262241;33;19909;-84
2022/09/04 08:24:34;;;;;;;;;;;20.00;71.30;;;19.50;65.52;96797.44;4262441;33;19916;-84
2022/09/04 08:27:12;;;;;;;;;;;20.10;71.20;;;19.52;65.26;96792.38;4233867;33;20059;-85
2022/09/04 08:29:51;;;;;;;;;;;20.10;71.00;;;19.48;65.40;96788.59;4257759;33;20202;-85
2022/09/04 08:32:48;;;;;;;;;;;20.10;70.90;;;19.45;65.56;96791.97;4233440;33;19910;-85
2022/09/04 08:35:23;;;;;;;;;;;20.10;70.90;;;19.38;65.64;96791.59;4205896;33;19925;-85
2022/09/04 08:38:18;;;;;;;;;;;20.10;71.00;;;19.31;65.79;96784.50;4257511;33;20218;-85
2022/09/04 08:41:40;;;;;;;;;;;20.00;71.10;;;19.24;65.98;96798.03;4222515;33;20222;-85
2022/09/04 08:45:07;;;;;;;;;;;20.00;71.30;;;19.18;65.97;96793.69;4263380;33;19902;-85
2022/09/04 08:48:20;;;;;;;;;;;19.90;71.60;;;19.13;66.03;96791.06;4182682;33;19910;-85
2022/09/04 08:51:33;;;;;;;;;;;19.80;71.60;;;19.09;66.26;96798.34;4234390;33;20098;-85
2022/09/04 08:54:14;;;;;;;;;;;19.80;71.90;;;19.04;66.65;96798.50;4207601;33;20139;-84
2022/09/04 08:56:46;;;;;;;;;;;19.80;71.90;;;19.00;66.22;96798.25;4255090;33;20023;-85
2022/09/04 08:59:51;;;;;;;;;;;19.70;72.00;;;18.96;66.62;96798.06;4262081;33;19902;-85
2022/09/04 09:03:14;;;;;;;;;;;19.70;72.00;;;18.94;66.50;96797.56;4234653;33;20171;-85
2022/09/04 09:06:12;;;;;;;;;;;19.70;72.10;;;18.92;66.38;96791.47;4240434;33;19993;-84
2022/09/04 09:09:13;;;;;;;;;;;19.60;72.20;;;18.91;66.94;96803.69;4238155;33;19909;-84
2022/09/04 09:12:28;;;;;;;;;;;19.60;72.10;;;18.89;66.45;96803.19;4220163;33;20025;-84
2022/09/04 09:15:47;;;;;;;;;;;19.60;72.30;;;18.88;66.64;96807.09;4209861;33;19979;-84
2022/09/04 09:18:45;;;;;;;;;;;19.60;72.20;;;18.86;66.64;96801.84;4209997;33;19902;-84
2022/09/04 09:21:24;;;;;;;;;;;19.60;72.30;;;18.85;66.94;96791.06;4225660;33;20375;-84
2022/09/04 09:24:15;;;;;;;;;;;19.60;72.40;;;18.86;66.89;96799.06;4262874;33;19912;-84
2022/09/04 09:26:50;;;;;;;;;;;19.60;72.40;;;18.87;66.71;96794.38;4261687;33;19913;-85
2022/09/04 09:29:53;;;;;;;;;;;19.60;72.40;;;18.87;66.54;96794.38;4262916;33;20306;-84
2022/09/04 09:32:56;;;;;;;;;;;19.60;72.40;;;18.90;66.82;96796.53;4236669;33;20137;-84
2022/09/04 09:36:07;;;;;;;;;;;19.60;72.30;;;18.94;66.74;96788.44;4209475;33;19910;-84
2022/09/04 09:39:41;;;;;;;;;;;19.60;72.20;;;18.98;66.66;96806.06;4233259;33;20470;-85
2022/09/04 09:42:59;;;;;;;;;;;19.70;72.20;;;19.01;66.15;96800.75;4131284;34;19904;-84
2022/09/04 09:46:01;;;;;;;;;;;19.70;72.00;;;19.01;66.51;96795.19;4206874;33;19929;-84
2022/09/04 09:49:15;;;;;;;;;;;19.70;71.90;;;19.01;66.48;96795.19;4229264;33;19902;-85
2022/09/04 09:52:14;;;;;;;;;;;19.70;71.80;;;19.00;66.17;96798.25;4197291;33;19948;-84
2022/09/04 09:55:18;;;;;;;;;;;19.70;71.80;;;18.98;66.36;96811.63;4261805;33;20092;-85
2022/09/04 09:58:30;;;;;;;;;;;19.70;71.90;;;18.97;66.54;96808.03;4285649;33;20036;-85
2022/09/04 10:01:08;;;;;;;;;;;19.70;71.90;;;18.96;66.57;96800.84;4259408;33;19906;-84
2022/09/04 10:04:27;;;;;;;;;;;19.70;71.90;;;18.95;66.55;96803.94;4232988;33;20036;-85
2022/09/04 10:07:27;;;;;;;;;;;19.70;72.00;;;18.95;66.36;96798.41;4232751;33;20117;-85
2022/09/04 10:10:45;;;;;;;;;;;19.60;71.80;;;18.93;66.42;96800.63;4176290;33;19903;-85
2022/09/04 10:13:26;;;;;;;;;;;19.60;72.00;;;18.94;66.49;96799.53;4232683;33;19909;-84
2022/09/04 10:16:47;;;;;;;;;;;19.60;72.00;;;18.95;66.59;96790.88;4262194;33;20121;-85
2022/09/04 10:20:01;;;;;;;;;;;19.70;72.00;;;18.96;66.11;96789.75;4232979;33;19903;-84
2022/09/04 10:23:08;;;;;;;;;;;19.70;71.90;;;18.98;66.46;96803.28;4233215;33;19902;-85
2022/09/04 10:26:24;;;;;;;;;;;19.70;71.90;;;18.96;65.94;96803.63;4232503;33;19929;-85
2022/09/04 10:29:37;;;;;;;;;;;19.70;71.80;;;18.95;66.32;96807.53;4099038;34;20147;-84
2022/09/04 10:32:36;;;;;;;;;;;19.70;71.70;;;18.92;66.11;96805.34;4098620;34;19977;-85
2022/09/04 10:35:17;;;;;;;;;;;19.60;72.60;;;18.90;66.34;96799.28;4230284;33;19902;-84
2022/09/04 10:38:16;;;;;;;;;;;19.60;71.80;;;18.89;66.48;96788.50;4208924;33;19902;-84
2022/09/04 10:41:19;;;;;;;;;;;19.60;71.90;;;18.88;66.08;96796.00;4232391;33;20452;-84
2022/09/04 10:44:30;;;;;;;;;;;19.60;72.00;;;18.89;66.52;96797.66;4232870;33;19927;-85
2022/09/04 10:47:07;;;;;;;;;;;19.60;71.90;;;18.90;66.26;96793.75;4136930;33;20050;-84
2022/09/04 10:50:05;;;;;;;;;;;19.60;71.90;;;18.91;66.50;96794.56;4232533;33;19909;-84
2022/09/04 10:53:04;;;;;;;;;;;19.60;71.90;;;18.91;66.33;96784.25;4233002;33;20033;-84
2022/09/04 10:55:44;;;;;;;;;;;19.60;71.80;;;18.91;66.51;96778.72;4232593;33;20007;-84
2022/09/04 10:58:43;;;;;;;;;;;19.60;71.90;;;18.92;66.26;96780.38;4232279;33;19903;-84
2022/09/04 11:01:39;;;;;;;;;;;19.60;71.80;;;18.92;66.08;96794.22;4232870;33;19902;-84
2022/09/04 11:04:53;;;;;;;;;;;19.60;71.80;;;18.91;66.73;96783.47;4232553;33;19902;-85
2022/09/04 11:08:06;;;;;;;;;;;19.60;71.90;;;18.90;66.45;96774.31;4196975;33;20040;-84
2022/09/04 11:10:58;;;;;;;;;;;19.60;72.00;;;18.89;66.31;96775.47;4230204;33;20326;-84
2022/09/04 11:14:18;;;;;;;;;;;19.60;71.90;;;18.89;66.19;96775.47;4235813;33;20202;-84
2022/09/04 11:17:21;;;;;;;;;;;19.60;71.80;;;18.88;66.05;96771.03;4229917;33;19917;-84
2022/09/04 11:20:43;;;;;;;;;;;19.60;71.80;;;18.89;66.27;96769.06;4234890;33;20117;-84
2022/09/04 11:23:54;;;;;;;;;;;19.60;71.70;;;18.88;66.12;96768.25;4238025;33;19909;-84
2022/09/04 11:27:21;;;;;;;;;;;19.60;71.70;;;18.86;65.99;96764.97;4177069;33;19971;-84
2022/09/04 11:30:02;;;;;;;;;;;19.60;71.70;;;18.85;66.06;96766.09;4150559;34;19904;-84
2022/09/04 11:33:41;;;;;;;;;;;19.60;71.70;;;18.84;66.64;96767.22;4149814;34;20016;-84
2022/09/04 11:36:56;;;;;;;;;;;19.60;71.90;;;18.83;66.19;96765.59;4094817;34;19903;-84
2022/09/04 11:40:02;;;;;;;;;;;19.60;71.80;;;18.83;66.12;96763.66;4125097;33;20349;-84
2022/09/04 11:42:38;;;;;;;;;;;19.60;71.70;;;18.83;66.05;96762.81;4213469;33;19902;-84
2022/09/04 11:45:37;;;;;;;;;;;19.60;71.70;;;18.83;66.22;96765.59;4258465;33;19902;-85
2022/09/04 11:48:29;;;;;;;;;;;19.60;71.70;;;18.83;66.39;96765.59;4210829;33;20113;-84
2022/09/04 11:51:16;;;;;;;;;;;19.60;71.80;;;18.82;66.22;96758.41;4233977;33;19946;-84
2022/09/04 11:54:43;;;;;;;;;;;19.50;71.70;;;18.82;66.31;96758.41;4258270;33;19982;-85
2022/09/04 11:57:16;;;;;;;;;;;19.60;71.60;;;18.83;66.28;96746.16;4135364;33;19902;-84
2022/09/04 12:00:07;;;;;;;;;;;19.60;71.70;;;18.82;66.09;96752.84;4258153;33;19941;-84
2022/09/04 12:03:11;;;;;;;;;;;19.60;71.70;;;18.81;66.12;96753.97;4233641;33;19909;-84
2022/09/04 12:06:08;;;;;;;;;;;19.50;71.80;;;18.80;66.11;96757.88;4210731;33;20008;-84
2022/09/04 12:09:03;;;;;;;;;;;19.50;71.70;;;18.78;66.27;96752.66;4233862;33;20125;-84
2022/09/04 12:11:58;;;;;;;;;;;19.50;71.70;;;18.78;66.31;96754.63;4233616;33;19909;-84
2022/09/04 12:14:51;;;;;;;;;;;19.50;71.80;;;18.76;66.34;96754.09;4235123;33;20221;-84
2022/09/04 12:18:03;;;;;;;;;;;19.50;71.80;;;18.76;66.08;96757.69;4233498;33;20115;-84
2022/09/04 12:21:39;;;;;;;;;;;19.50;71.80;;;18.75;66.04;96744.16;4196694;33;19909;-84
2022/09/04 12:24:23;;;;;;;;;;;19.50;71.90;;;18.73;66.50;96733.34;4177335;34;20067;-84
2022/09/04 12:27:21;;;;;;;;;;;19.50;72.00;;;18.74;66.13;96739.72;4233948;33;19902;-84
2022/09/04 12:30:16;;;;;;;;;;;19.40;71.80;;;18.74;66.23;96739.72;4235010;33;20246;-84
2022/09/04 12:33:19;;;;;;;;;;;19.50;71.80;;;18.74;66.09;96734.19;4257272;33;20218;-84
2022/09/04 12:36:26;;;;;;;;;;;19.50;71.80;;;18.74;66.25;96732.22;4234767;33;20122;-84
2022/09/04 12:39:26;;;;;;;;;;;19.40;71.60;;;18.76;66.34;96737.47;4210378;33;19902;-84
2022/09/04 12:41:58;;;;;;;;;;;19.50;71.70;;;18.75;66.13;96730.28;4257380;33;19971;-84
2022/09/04 12:44:39;;;;;;;;;;;19.50;71.70;;;18.73;66.33;96727.78;4233879;33;19902;-84
2022/09/04 12:47:18;;;;;;;;;;;19.50;71.70;;;18.75;66.08;96730.28;4233736;33;19902;-84
2022/09/04 12:50:16;;;;;;;;;;;19.50;71.70;;;18.75;65.91;96727.50;4233870;33;19902;-84